createdAt,value
2019-01-10T00:00:08.511Z,96.22
2019-01-10T00:01:08.481Z,96.01
2019-01-10T00:02:08.474Z,95.95
2019-01-10T00:03:08.450Z,95.81
2019-01-10T00:04:08.456Z,95.95
2019-01-10T00:05:08.459Z,96.06
2019-01-10T00:06:08.425Z,96.06
2019-01-10T00:07:08.401Z,96.48
2019-01-10T00:08:08.400Z,96.06
2019-01-10T00:09:08.388Z,96.48
2019-01-10T00:10:08.410Z,96.16
2019-01-10T00:11:08.371Z,96.06
2019-01-10T00:12:08.355Z,96.16
2019-01-10T00:13:08.350Z,96.16
2019-01-10T00:14:08.335Z,95.85
2019-01-10T00:15:08.317Z,96.26
2019-01-10T00:16:08.328Z,96.16
2019-01-10T00:17:08.300Z,96.16
2019-01-10T00:18:08.298Z,95.95
2019-01-10T00:19:08.277Z,96.26
2019-01-10T00:20:08.258Z,96.26
2019-01-10T00:21:08.266Z,96.06
2019-01-10T00:22:08.241Z,95.95
2019-01-10T00:23:08.231Z,95.85
2019-01-10T00:24:08.215Z,95.75
2019-01-10T00:25:08.228Z,95.54
2019-01-10T00:26:08.221Z,96.06
2019-01-10T00:27:08.201Z,95.75
2019-01-10T00:28:08.178Z,95.33
2019-01-10T00:29:08.175Z,95.64
2019-01-10T00:30:08.157Z,95.02
2019-01-10T00:31:08.153Z,95.43
2019-01-10T00:32:08.126Z,95.64
2019-01-10T00:33:08.117Z,95.33
2019-01-10T00:34:08.103Z,95.43
2019-01-10T00:35:08.114Z,95.95
2019-01-10T00:36:08.102Z,95.64
2019-01-10T00:37:08.081Z,95.33
2019-01-10T00:38:08.086Z,95.43
2019-01-10T00:39:08.052Z,95.64
2019-01-10T00:40:08.047Z,95.64
2019-01-10T00:41:08.063Z,95.33
2019-01-10T00:42:08.040Z,95.75
2019-01-10T00:43:08.014Z,95.64
2019-01-10T00:44:07.999Z,95.54
2019-01-10T00:45:07.995Z,95.43
2019-01-10T00:46:07.997Z,94.70
2019-01-10T00:47:07.984Z,95.23
2019-01-10T00:48:07.963Z,95.64
2019-01-10T00:49:07.950Z,95.64
2019-01-10T00:50:07.940Z,95.02
2019-01-10T00:51:07.938Z,95.23
2019-01-10T00:52:07.908Z,95.33
2019-01-10T00:53:07.924Z,95.02
2019-01-10T00:54:07.905Z,94.92
2019-01-10T00:55:07.874Z,95.02
2019-01-10T00:56:07.902Z,94.29
2019-01-10T00:57:07.859Z,94.49
2019-01-10T00:58:07.944Z,94.81
2019-01-10T00:59:07.835Z,94.18
2019-01-10T01:00:07.832Z,94.39
2019-01-10T01:01:07.839Z,94.18
2019-01-10T01:02:07.800Z,93.98
2019-01-10T01:03:07.792Z,94.29
2019-01-10T01:04:07.800Z,94.18
2019-01-10T01:05:07.774Z,94.18
2019-01-10T01:06:07.771Z,94.49
2019-01-10T01:07:07.756Z,93.77
2019-01-10T01:08:07.752Z,93.77
2019-01-10T01:09:07.723Z,93.87
2019-01-10T01:10:07.727Z,93.77
2019-01-10T01:11:07.707Z,94.18
2019-01-10T01:12:07.708Z,94.18
2019-01-10T01:13:07.686Z,94.18
2019-01-10T01:14:07.663Z,93.87
2019-01-10T01:15:07.663Z,93.87
2019-01-10T01:16:07.643Z,93.98
2019-01-10T01:17:07.661Z,93.66
2019-01-10T01:18:07.633Z,93.87
2019-01-10T01:19:07.613Z,94.08
2019-01-10T01:20:07.600Z,94.29
2019-01-10T01:21:07.605Z,94.29
2019-01-10T01:22:07.589Z,94.29
2019-01-10T01:23:07.573Z,94.08
2019-01-10T01:24:07.560Z,94.29
2019-01-10T01:25:07.542Z,94.08
2019-01-10T01:26:07.537Z,93.77
2019-01-10T01:27:07.544Z,94.39
2019-01-10T01:28:07.523Z,94.29
2019-01-10T01:29:07.504Z,94.18
2019-01-10T01:30:07.495Z,94.18
2019-01-10T01:31:07.483Z,94.29
2019-01-10T01:32:07.502Z,94.18
2019-01-10T01:33:07.463Z,94.49
2019-01-10T01:34:07.466Z,94.39
2019-01-10T01:35:07.442Z,94.29
2019-01-10T01:36:07.436Z,94.49
2019-01-10T01:37:07.458Z,94.18
2019-01-10T01:38:07.424Z,94.14
2019-01-10T01:39:07.406Z,93.87
2019-01-10T01:40:07.380Z,93.77
2019-01-10T01:41:07.370Z,93.98
2019-01-10T01:42:07.377Z,93.77
2019-01-10T01:43:07.838Z,93.87
2019-01-10T01:44:07.333Z,93.77
2019-01-10T01:45:07.324Z,94.08
2019-01-10T01:46:07.868Z,93.77
2019-01-10T01:47:07.312Z,93.98
2019-01-10T01:48:07.307Z,94.08
2019-01-10T01:49:07.291Z,94.18
2019-01-10T01:50:07.270Z,94.29
2019-01-10T01:51:07.248Z,94.18
2019-01-10T01:52:07.458Z,94.08
2019-01-10T01:53:07.254Z,94.08
2019-01-10T01:54:07.230Z,93.77
2019-01-10T01:55:07.226Z,93.87
2019-01-10T01:56:07.202Z,94.29
2019-01-10T01:57:07.185Z,94.18
2019-01-10T01:58:07.209Z,93.98
2019-01-10T01:59:07.176Z,94.18
2019-01-10T02:00:07.169Z,93.98
2019-01-10T02:01:07.184Z,94.49
2019-01-10T02:02:07.148Z,94.23
2019-01-10T02:03:07.144Z,94.33
2019-01-10T02:04:07.116Z,94.18
2019-01-10T02:05:07.123Z,94.70
2019-01-10T02:06:07.103Z,94.60
2019-01-10T02:07:07.088Z,94.60
2019-01-10T02:08:07.090Z,94.43
2019-01-10T02:09:07.062Z,94.70
2019-01-10T02:10:07.062Z,95.06
2019-01-10T02:11:07.046Z,94.85
2019-01-10T02:12:07.024Z,94.85
2019-01-10T02:13:16.287Z,94.70
2019-01-10T02:14:08.024Z,94.96
2019-01-10T02:15:07.012Z,94.85
2019-01-10T02:16:06.990Z,94.85
2019-01-10T02:17:06.992Z,94.81
2019-01-10T02:18:06.973Z,94.85
2019-01-10T02:19:06.954Z,94.96
2019-01-10T02:20:06.946Z,95.17
2019-01-10T02:21:06.929Z,95.12
2019-01-10T02:22:06.932Z,94.43
2019-01-10T02:23:06.934Z,94.49
2019-01-10T02:24:06.910Z,94.39
2019-01-10T02:25:06.900Z,94.85
2019-01-10T02:26:06.879Z,94.49
2019-01-10T02:27:06.879Z,94.43
2019-01-10T02:28:06.895Z,94.54
2019-01-10T02:29:06.844Z,94.81
2019-01-10T02:30:06.836Z,94.75
2019-01-10T02:31:06.824Z,94.64
2019-01-10T02:32:06.826Z,94.70
2019-01-10T02:33:06.798Z,94.85
2019-01-10T02:34:06.802Z,94.70
2019-01-10T02:35:06.785Z,94.92
2019-01-10T02:36:06.804Z,94.54
2019-01-10T02:37:06.784Z,94.39
2019-01-10T02:38:06.755Z,94.33
2019-01-10T02:39:06.740Z,93.98
2019-01-10T02:40:06.735Z,94.12
2019-01-10T02:41:06.718Z,94.33
2019-01-10T02:42:06.721Z,93.56
2019-01-10T02:43:06.694Z,94.23
2019-01-10T02:44:06.702Z,93.60
2019-01-10T02:45:06.662Z,93.81
2019-01-10T02:46:06.648Z,94.23
2019-01-10T02:47:06.655Z,93.91
2019-01-10T02:48:06.631Z,94.18
2019-01-10T02:49:06.642Z,93.91
2019-01-10T02:50:06.613Z,93.81
2019-01-10T02:51:06.615Z,94.23
2019-01-10T02:52:06.593Z,93.56
2019-01-10T02:53:06.584Z,93.71
2019-01-10T02:54:06.600Z,93.98
2019-01-10T02:55:06.565Z,94.08
2019-01-10T02:56:06.561Z,93.29
2019-01-10T02:57:06.535Z,93.91
2019-01-10T02:58:06.529Z,93.29
2019-01-10T02:59:06.544Z,93.71
2019-01-10T03:00:06.511Z,92.41
2019-01-10T03:01:06.505Z,92.41
2019-01-10T03:02:06.478Z,92.46
2019-01-10T03:03:06.470Z,92.56
2019-01-10T03:04:06.488Z,91.89
2019-01-10T03:05:06.456Z,92.10
2019-01-10T03:06:06.443Z,91.93
2019-01-10T03:07:06.428Z,91.72
2019-01-10T03:08:06.414Z,91.78
2019-01-10T03:09:06.401Z,91.83
2019-01-10T03:10:06.420Z,91.68
2019-01-10T03:11:06.394Z,92.41
2019-01-10T03:12:06.368Z,91.83
2019-01-10T03:13:06.376Z,91.72
2019-01-10T03:14:06.344Z,91.78
2019-01-10T03:15:06.348Z,91.68
2019-01-10T03:16:06.333Z,92.14
2019-01-10T03:17:06.318Z,92.25
2019-01-10T03:18:06.308Z,92.03
2019-01-10T03:19:06.314Z,92.25
2019-01-10T03:20:06.298Z,92.25
2019-01-10T03:21:06.279Z,92.25
2019-01-10T03:22:06.264Z,91.93
2019-01-10T03:23:06.273Z,92.25
2019-01-10T03:24:06.270Z,92.35
2019-01-10T03:25:06.248Z,92.21
2019-01-10T03:26:06.228Z,91.93
2019-01-10T03:27:06.260Z,91.93
2019-01-10T03:28:06.210Z,91.62
2019-01-10T03:29:06.181Z,92.14
2019-01-10T03:30:06.190Z,91.20
2019-01-10T03:31:06.172Z,91.06
2019-01-10T03:32:06.162Z,91.72
2019-01-10T03:33:06.153Z,91.72
2019-01-10T03:34:06.140Z,91.52
2019-01-10T03:35:06.149Z,91.83
2019-01-10T03:36:06.116Z,91.00
2019-01-10T03:37:06.096Z,91.83
2019-01-10T03:38:06.087Z,90.16
2019-01-10T03:39:06.101Z,90.68
2019-01-10T03:40:06.095Z,91.00
2019-01-10T03:41:06.053Z,89.85
2019-01-10T03:42:06.044Z,89.75
2019-01-10T03:43:06.037Z,89.75
2019-01-10T03:44:06.026Z,90.16
2019-01-10T03:45:06.013Z,90.47
2019-01-10T03:46:06.022Z,90.26
2019-01-10T03:47:05.996Z,90.37
2019-01-10T03:48:05.986Z,90.37
2019-01-10T03:49:05.970Z,89.75
2019-01-10T03:50:05.956Z,89.75
2019-01-10T03:51:05.963Z,89.43
2019-01-10T03:52:05.941Z,89.54
2019-01-10T03:53:05.937Z,88.91
2019-01-10T03:54:05.920Z,89.12
2019-01-10T03:55:05.898Z,88.91
2019-01-10T03:56:05.931Z,89.22
2019-01-10T03:57:05.875Z,88.91
2019-01-10T03:58:05.875Z,89.01
2019-01-10T03:59:05.859Z,89.22
2019-01-10T04:00:05.849Z,89.75
2019-01-10T04:01:05.877Z,89.64
2019-01-10T04:02:05.825Z,89.85
2019-01-10T04:03:05.821Z,89.54
2019-01-10T04:04:05.810Z,89.43
2019-01-10T04:05:05.788Z,88.91
2019-01-10T04:06:05.809Z,89.54
2019-01-10T04:07:05.783Z,90.06
2019-01-10T04:08:05.765Z,89.64
2019-01-10T04:09:05.756Z,89.54
2019-01-10T04:10:05.734Z,89.54
2019-01-10T04:11:05.744Z,90.37
2019-01-10T04:12:05.711Z,90.06
2019-01-10T04:13:05.753Z,89.85
2019-01-10T04:14:05.700Z,89.95
2019-01-10T04:15:05.688Z,89.95
2019-01-10T04:16:05.692Z,90.44
2019-01-10T04:17:05.666Z,90.37
2019-01-10T04:18:05.650Z,89.43
2019-01-10T04:19:05.652Z,89.43
2019-01-10T04:20:05.630Z,90.06
2019-01-10T04:21:05.629Z,89.64
2019-01-10T04:22:05.604Z,90.06
2019-01-10T04:23:05.618Z,90.37
2019-01-10T04:24:05.581Z,89.54
2019-01-10T04:25:05.579Z,90.37
2019-01-10T04:26:05.574Z,89.95
2019-01-10T04:27:05.552Z,90.26
2019-01-10T04:28:05.540Z,90.58
2019-01-10T04:29:05.550Z,89.75
2019-01-10T04:30:05.526Z,89.75
2019-01-10T04:31:05.546Z,89.64
2019-01-10T04:32:05.501Z,89.64
2019-01-10T04:33:05.486Z,90.06
2019-01-10T04:34:05.474Z,90.06
2019-01-10T04:35:05.478Z,89.95
2019-01-10T04:36:05.462Z,90.16
2019-01-10T04:37:05.558Z,90.06
2019-01-10T04:38:05.446Z,90.16
2019-01-10T04:39:05.417Z,90.16
2019-01-10T04:40:05.427Z,89.85
2019-01-10T04:41:05.394Z,90.47
2019-01-10T04:42:05.405Z,90.37
2019-01-10T04:43:05.384Z,90.31
2019-01-10T04:44:07.304Z,90.83
2019-01-10T04:45:05.356Z,90.83
2019-01-10T04:46:05.344Z,91.14
2019-01-10T04:47:05.362Z,90.93
2019-01-10T04:48:05.325Z,91.35
2019-01-10T04:49:05.310Z,91.77
2019-01-10T04:50:05.319Z,91.66
2019-01-10T04:51:05.297Z,91.56
2019-01-10T04:52:05.296Z,91.77
2019-01-10T04:53:05.284Z,91.77
2019-01-10T04:54:05.295Z,91.46
2019-01-10T04:55:05.268Z,91.87
2019-01-10T04:56:05.246Z,91.97
2019-01-10T04:57:05.249Z,91.77
2019-01-10T04:58:05.210Z,91.87
2019-01-10T04:59:05.211Z,91.77
2019-01-10T05:00:05.205Z,91.46
2019-01-10T05:01:05.182Z,91.35
2019-01-10T05:02:05.194Z,91.14
2019-01-10T05:03:05.158Z,91.14
2019-01-10T05:04:05.145Z,91.14
2019-01-10T05:05:05.147Z,91.91
2019-01-10T05:06:05.126Z,91.66
2019-01-10T05:07:05.144Z,91.81
2019-01-10T05:08:05.103Z,91.66
2019-01-10T05:09:05.085Z,92.33
2019-01-10T05:10:05.090Z,92.33
2019-01-10T05:11:05.069Z,91.81
2019-01-10T05:12:05.091Z,92.54
2019-01-10T05:13:05.047Z,92.44
2019-01-10T05:14:05.039Z,92.33
2019-01-10T05:15:05.043Z,91.91
2019-01-10T05:16:05.027Z,92.75
2019-01-10T05:17:05.005Z,92.44
2019-01-10T05:18:05.009Z,92.44
2019-01-10T05:19:04.990Z,92.33
2019-01-10T05:20:04.989Z,91.71
2019-01-10T05:21:04.962Z,91.81
2019-01-10T05:22:04.941Z,91.81
2019-01-10T05:23:04.939Z,91.60
2019-01-10T05:24:04.933Z,91.81
2019-01-10T05:25:04.927Z,91.18
2019-01-10T05:26:04.901Z,92.33
2019-01-10T05:27:04.905Z,91.81
2019-01-10T05:28:04.906Z,91.81
2019-01-10T05:29:04.876Z,91.71
2019-01-10T05:30:04.860Z,92.54
2019-01-10T05:31:04.872Z,91.91
2019-01-10T05:32:04.845Z,92.44
2019-01-10T05:33:04.837Z,91.91
2019-01-10T05:34:04.810Z,91.81
2019-01-10T05:35:04.802Z,91.39
2019-01-10T05:36:04.798Z,91.18
2019-01-10T05:37:06.017Z,91.18
2019-01-10T05:38:04.808Z,91.08
2019-01-10T05:39:04.769Z,91.08
2019-01-10T05:40:04.746Z,91.08
2019-01-10T05:41:04.740Z,91.71
2019-01-10T05:42:04.737Z,91.29
2019-01-10T05:43:04.741Z,91.08
2019-01-10T05:44:04.734Z,90.87
2019-01-10T05:45:04.706Z,90.45
2019-01-10T05:46:04.691Z,90.56
2019-01-10T05:47:04.680Z,90.87
2019-01-10T05:48:04.700Z,90.56
2019-01-10T05:49:04.659Z,90.66
2019-01-10T05:50:04.640Z,91.18
2019-01-10T05:51:04.634Z,90.03
2019-01-10T05:52:04.624Z,90.66
2019-01-10T05:53:04.641Z,90.14
2019-01-10T05:54:04.602Z,90.35
2019-01-10T05:55:04.586Z,90.25
2019-01-10T05:56:04.587Z,90.45
2019-01-10T05:57:04.566Z,90.45
2019-01-10T05:58:04.568Z,90.14
2019-01-10T05:59:04.564Z,90.45
2019-01-10T06:00:04.534Z,89.62
2019-01-10T06:01:04.515Z,88.99
2019-01-10T06:02:04.536Z,89.31
2019-01-10T06:03:04.519Z,89.62
2019-01-10T06:04:04.500Z,89.31
2019-01-10T06:05:04.484Z,89.51
2019-01-10T06:06:04.478Z,89.41
2019-01-10T06:07:04.453Z,90.14
2019-01-10T06:08:04.462Z,89.51
2019-01-10T06:09:04.443Z,88.99
2019-01-10T06:10:04.419Z,89.20
2019-01-10T06:11:04.407Z,89.51
2019-01-10T06:12:04.411Z,89.83
2019-01-10T06:13:04.386Z,88.99
2019-01-10T06:14:04.398Z,89.51
2019-01-10T06:15:04.378Z,89.72
2019-01-10T06:16:04.355Z,89.62
2019-01-10T06:17:04.350Z,89.62
2019-01-10T06:18:04.344Z,89.51
2019-01-10T06:19:04.343Z,89.51
2019-01-10T06:20:04.316Z,89.51
2019-01-10T06:21:04.318Z,89.24
2019-01-10T06:22:04.290Z,89.56
2019-01-10T06:23:04.279Z,89.51
2019-01-10T06:24:04.307Z,89.45
2019-01-10T06:25:04.275Z,89.20
2019-01-10T06:26:04.251Z,89.20
2019-01-10T06:27:04.233Z,89.66
2019-01-10T06:28:04.226Z,88.68
2019-01-10T06:29:04.231Z,88.72
2019-01-10T06:30:04.198Z,88.68
2019-01-10T06:31:04.197Z,89.62
2019-01-10T06:32:04.180Z,88.62
2019-01-10T06:33:04.162Z,89.03
2019-01-10T06:34:06.403Z,88.62
2019-01-10T06:35:04.143Z,88.82
2019-01-10T06:36:04.127Z,88.72
2019-01-10T06:37:04.130Z,88.93
2019-01-10T06:38:04.209Z,88.99
2019-01-10T06:39:04.119Z,88.68
2019-01-10T06:40:04.090Z,88.99
2019-01-10T06:41:04.085Z,88.68
2019-01-10T06:42:04.078Z,88.68
2019-01-10T06:43:04.056Z,88.68
2019-01-10T06:44:04.076Z,88.57
2019-01-10T06:45:04.041Z,88.68
2019-01-10T06:46:04.018Z,88.57
2019-01-10T06:47:04.013Z,88.06
2019-01-10T06:48:04.017Z,87.53
2019-01-10T06:49:04.000Z,87.99
2019-01-10T06:50:04.000Z,88.62
2019-01-10T06:51:03.977Z,88.09
2019-01-10T06:52:03.960Z,88.62
2019-01-10T06:53:03.954Z,88.09
2019-01-10T06:54:03.940Z,88.41
2019-01-10T06:55:03.956Z,88.51
2019-01-10T06:56:03.917Z,88.26
2019-01-10T06:57:03.909Z,88.30
2019-01-10T06:58:03.904Z,88.47
2019-01-10T06:59:03.879Z,89.51
2019-01-10T07:00:03.896Z,89.41
2019-01-10T07:01:03.860Z,88.68
2019-01-10T07:02:03.848Z,89.10
2019-01-10T07:03:03.850Z,88.68
2019-01-10T07:04:03.836Z,88.53
2019-01-10T07:05:03.844Z,87.91
2019-01-10T07:06:03.816Z,86.87
2019-01-10T07:07:03.813Z,86.76
2019-01-10T07:08:03.795Z,86.24
2019-01-10T07:09:03.768Z,86.24
2019-01-10T07:10:03.772Z,86.76
2019-01-10T07:11:03.755Z,86.03
2019-01-10T07:12:03.739Z,86.13
2019-01-10T07:13:03.731Z,86.80
2019-01-10T07:14:03.756Z,86.91
2019-01-10T07:15:03.740Z,87.01
2019-01-10T07:16:03.720Z,86.80
2019-01-10T07:17:03.718Z,87.05
2019-01-10T07:18:03.670Z,86.80
2019-01-10T07:19:03.689Z,86.63
2019-01-10T07:20:03.682Z,86.94
2019-01-10T07:21:03.651Z,87.57
2019-01-10T07:22:03.638Z,87.26
2019-01-10T07:23:03.639Z,87.57
2019-01-10T07:24:03.596Z,87.47
2019-01-10T07:25:03.632Z,86.94
2019-01-10T07:26:03.594Z,87.43
2019-01-10T07:27:03.573Z,87.47
2019-01-10T07:28:03.573Z,87.47
2019-01-10T07:29:03.547Z,87.68
2019-01-10T07:30:03.552Z,88.09
2019-01-10T07:31:03.543Z,87.78
2019-01-10T07:32:03.521Z,87.78
2019-01-10T07:33:03.527Z,87.99
2019-01-10T07:34:03.508Z,88.09
2019-01-10T07:35:03.510Z,88.41
2019-01-10T07:36:03.485Z,87.88
2019-01-10T07:37:12.392Z,88.51
2019-01-10T07:38:04.458Z,88.09
2019-01-10T07:39:03.441Z,87.26
2019-01-10T07:40:03.448Z,87.37
2019-01-10T07:41:03.442Z,88.09
2019-01-10T07:42:03.414Z,88.41
2019-01-10T07:43:03.407Z,88.09
2019-01-10T07:44:03.388Z,87.99
2019-01-10T07:45:03.385Z,87.99
2019-01-10T07:46:03.381Z,87.88
2019-01-10T07:47:03.355Z,88.41
2019-01-10T07:48:03.342Z,88.06
2019-01-10T07:49:03.325Z,88.51
2019-01-10T07:50:03.321Z,87.99
2019-01-10T07:51:03.324Z,86.80
2019-01-10T07:52:03.308Z,86.94
2019-01-10T07:53:03.285Z,87.05
2019-01-10T07:54:03.274Z,86.38
2019-01-10T07:55:03.268Z,86.74
2019-01-10T07:56:03.261Z,87.15
2019-01-10T07:57:03.251Z,87.26
2019-01-10T07:58:03.264Z,86.74
2019-01-10T07:59:03.211Z,86.43
2019-01-10T08:00:03.221Z,86.74
2019-01-10T08:01:03.225Z,86.21
2019-01-10T08:02:03.203Z,87.05
2019-01-10T08:03:03.206Z,86.74
2019-01-10T08:04:03.154Z,86.94
2019-01-10T08:05:03.147Z,87.05
2019-01-10T08:06:04.644Z,86.63
2019-01-10T08:07:03.131Z,86.63
2019-01-10T08:08:03.120Z,86.53
2019-01-10T08:09:03.158Z,86.11
2019-01-10T08:10:03.099Z,86.74
2019-01-10T08:11:03.140Z,85.80
2019-01-10T08:12:03.070Z,86.43
2019-01-10T08:13:03.060Z,86.84
2019-01-10T08:14:03.046Z,86.53
2019-01-10T08:15:11.563Z,85.90
2019-01-10T08:16:04.055Z,85.17
2019-01-10T08:17:03.023Z,85.69
2019-01-10T08:18:03.006Z,86.43
2019-01-10T08:19:03.003Z,86.11
2019-01-10T08:20:03.029Z,86.11
2019-01-10T08:21:02.985Z,85.94
2019-01-10T08:22:03.023Z,86.32
2019-01-10T08:23:02.961Z,86.63
2019-01-10T08:24:02.957Z,86.43
2019-01-10T08:25:02.941Z,86.53
2019-01-10T08:26:02.925Z,86.32
2019-01-10T08:27:02.928Z,86.21
2019-01-10T08:28:02.937Z,85.69
2019-01-10T08:29:02.887Z,86.00
2019-01-10T08:30:02.878Z,85.38
2019-01-10T08:31:02.869Z,85.27
2019-01-10T08:32:04.125Z,85.63
2019-01-10T08:33:02.834Z,85.27
2019-01-10T08:34:02.835Z,85.27
2019-01-10T08:35:02.818Z,85.38
2019-01-10T08:36:02.799Z,85.27
2019-01-10T08:37:02.813Z,85.27
2019-01-10T08:38:02.801Z,85.69
2019-01-10T08:39:02.775Z,85.27
2019-01-10T08:40:02.788Z,85.27
2019-01-10T08:41:02.770Z,85.17
2019-01-10T08:42:02.771Z,85.06
2019-01-10T08:43:02.749Z,85.27
2019-01-10T08:44:02.774Z,85.17
2019-01-10T08:45:02.730Z,85.59
2019-01-10T08:46:02.700Z,85.80
2019-01-10T08:47:02.709Z,85.80
2019-01-10T08:48:02.682Z,85.06
2019-01-10T08:49:02.672Z,85.17
2019-01-10T08:50:02.658Z,85.49
2019-01-10T08:51:02.663Z,85.17
2019-01-10T08:52:02.659Z,85.17
2019-01-10T08:53:02.632Z,85.03
2019-01-10T08:54:02.612Z,85.34
2019-01-10T08:55:02.614Z,85.17
2019-01-10T08:56:02.599Z,85.38
2019-01-10T08:57:02.618Z,84.96
2019-01-10T08:58:02.585Z,84.65
2019-01-10T08:59:02.581Z,85.38
2019-01-10T09:00:02.553Z,85.38
2019-01-10T09:01:02.539Z,85.59
2019-01-10T09:02:02.530Z,83.92
2019-01-10T09:03:02.536Z,83.81
2019-01-10T09:04:02.521Z,84.75
2019-01-10T09:05:02.488Z,84.40
2019-01-10T09:06:08.128Z,84.44
2019-01-10T09:07:03.482Z,84.12
2019-01-10T09:08:02.490Z,83.92
2019-01-10T09:09:02.455Z,83.47
2019-01-10T09:10:02.445Z,83.57
2019-01-10T09:11:02.425Z,83.08
2019-01-10T09:12:02.418Z,82.98
2019-01-10T09:13:02.417Z,82.98
2019-01-10T09:14:04.650Z,83.92
2019-01-10T09:15:02.383Z,83.47
2019-01-10T09:16:02.370Z,83.81
2019-01-10T09:17:02.369Z,83.81
2019-01-10T09:18:02.381Z,84.02
2019-01-10T09:19:02.334Z,83.92
2019-01-10T09:20:02.331Z,84.34
2019-01-10T09:21:04.510Z,84.19
2019-01-10T09:22:02.319Z,83.47
2019-01-10T09:23:02.331Z,83.50
2019-01-10T09:24:02.292Z,83.29
2019-01-10T09:25:02.277Z,83.61
2019-01-10T09:26:02.267Z,83.18
2019-01-10T09:27:02.294Z,82.87
2019-01-10T09:28:02.251Z,83.15
2019-01-10T09:29:02.228Z,82.84
2019-01-10T09:30:02.227Z,82.53
2019-01-10T09:31:02.236Z,82.10
2019-01-10T09:32:02.210Z,82.73
2019-01-10T09:33:02.268Z,82.10
2019-01-10T09:34:02.185Z,82.00
2019-01-10T09:35:02.163Z,82.31
2019-01-10T09:36:02.158Z,81.90
2019-01-10T09:37:03.915Z,82.21
2019-01-10T09:38:02.148Z,82.42
2019-01-10T09:39:02.115Z,81.90
2019-01-10T09:40:02.113Z,81.90
2019-01-10T09:41:02.098Z,81.59
2019-01-10T09:42:02.103Z,81.27
2019-01-10T09:43:02.101Z,81.59
2019-01-10T09:44:02.063Z,82.10
2019-01-10T09:45:02.056Z,82.21
2019-01-10T09:46:02.034Z,82.31
2019-01-10T09:47:02.031Z,82.42
2019-01-10T09:48:02.010Z,82.21
2019-01-10T09:49:02.047Z,82.10
2019-01-10T09:50:02.004Z,82.31
2019-01-10T09:51:02.006Z,82.07
2019-01-10T09:52:01.967Z,82.10
2019-01-10T09:53:01.980Z,82.31
2019-01-10T09:54:01.972Z,81.96
2019-01-10T09:55:01.939Z,80.92
2019-01-10T09:56:01.932Z,81.13
2019-01-10T09:57:01.938Z,80.65
2019-01-10T09:58:01.951Z,81.16
2019-01-10T09:59:01.930Z,80.85
2019-01-10T10:00:01.894Z,80.75
2019-01-10T10:01:01.881Z,79.60
2019-01-10T10:02:01.877Z,80.23
2019-01-10T10:03:01.876Z,80.75
2019-01-10T10:04:01.864Z,80.75
2019-01-10T10:05:01.854Z,80.96
2019-01-10T10:06:07.599Z,81.06
2019-01-10T10:07:02.808Z,81.06
2019-01-10T10:08:01.792Z,80.75
2019-01-10T10:09:01.826Z,81.16
2019-01-10T10:10:01.800Z,80.96
2019-01-10T10:11:01.775Z,80.44
2019-01-10T10:12:01.748Z,80.54
2019-01-10T10:13:01.751Z,80.33
2019-01-10T10:14:01.761Z,79.71
2019-01-10T10:15:01.741Z,80.02
2019-01-10T10:16:01.733Z,80.33
2019-01-10T10:17:01.706Z,80.23
2019-01-10T10:18:01.681Z,79.46
2019-01-10T10:19:01.689Z,79.67
2019-01-10T10:20:01.671Z,79.91
2019-01-10T10:21:01.676Z,80.19
2019-01-10T10:22:01.643Z,79.29
2019-01-10T10:23:01.654Z,79.36
2019-01-10T10:24:01.627Z,80.19
2019-01-10T10:25:01.681Z,79.60
2019-01-10T10:26:01.607Z,79.67
2019-01-10T10:27:01.621Z,79.98
2019-01-10T10:28:01.587Z,79.15
2019-01-10T10:29:01.573Z,79.36
2019-01-10T10:30:01.610Z,79.36
2019-01-10T10:31:01.558Z,79.15
2019-01-10T10:32:01.534Z,78.83
2019-01-10T10:33:01.530Z,78.73
2019-01-10T10:34:01.542Z,79.36
2019-01-10T10:35:01.518Z,79.32
2019-01-10T10:36:01.507Z,79.46
2019-01-10T10:37:01.474Z,79.46
2019-01-10T10:38:01.485Z,79.53
2019-01-10T10:39:01.477Z,79.84
2019-01-10T10:40:01.477Z,80.26
2019-01-10T10:41:01.432Z,79.74
2019-01-10T10:42:01.431Z,79.22
2019-01-10T10:43:01.414Z,79.32
2019-01-10T10:44:01.435Z,79.43
2019-01-10T10:45:01.424Z,79.43
2019-01-10T10:46:02.013Z,79.49
2019-01-10T10:47:02.404Z,79.74
2019-01-10T10:48:01.363Z,79.39
2019-01-10T10:49:01.345Z,79.53
2019-01-10T10:50:01.368Z,79.60
2019-01-10T10:51:01.321Z,79.43
2019-01-10T10:52:01.316Z,79.43
2019-01-10T10:53:01.321Z,79.28
2019-01-10T10:54:01.321Z,79.94
2019-01-10T10:55:01.294Z,79.63
2019-01-10T10:56:01.280Z,79.53
2019-01-10T10:57:01.273Z,79.43
2019-01-10T10:58:01.251Z,79.46
2019-01-10T10:59:01.250Z,80.26
2019-01-10T11:00:01.259Z,79.67
2019-01-10T11:01:01.222Z,79.36
2019-01-10T11:02:01.210Z,78.94
2019-01-10T11:03:01.199Z,78.42
2019-01-10T11:04:01.215Z,78.42
2019-01-10T11:05:01.199Z,78.04
2019-01-10T11:06:01.171Z,77.62
2019-01-10T11:07:01.157Z,78.11
2019-01-10T11:08:01.156Z,78.00
2019-01-10T11:09:09.134Z,77.17
2019-01-10T11:10:02.136Z,77.69
2019-01-10T11:11:01.110Z,77.06
2019-01-10T11:12:01.144Z,77.37
2019-01-10T11:13:01.089Z,77.13
2019-01-10T11:14:01.098Z,76.51
2019-01-10T11:15:01.083Z,75.46
2019-01-10T11:16:01.086Z,75.46
2019-01-10T11:17:01.046Z,76.65
2019-01-10T11:18:01.027Z,76.75
2019-01-10T11:19:01.026Z,76.96
2019-01-10T11:20:01.024Z,77.06
2019-01-10T11:21:01.029Z,77.17
2019-01-10T11:22:01.007Z,77.27
2019-01-10T11:23:10.222Z,77.23
2019-01-10T11:24:01.967Z,77.13
2019-01-10T11:25:00.956Z,77.34
2019-01-10T11:26:00.959Z,76.72
2019-01-10T11:27:00.928Z,76.72
2019-01-10T11:28:00.914Z,76.61
2019-01-10T11:29:00.914Z,75.05
2019-01-10T11:30:00.900Z,74.74
2019-01-10T11:31:00.902Z,75.36
2019-01-10T11:32:00.878Z,76.09
2019-01-10T11:33:00.904Z,76.30
2019-01-10T11:34:00.848Z,75.26
2019-01-10T11:35:00.846Z,75.46
2019-01-10T11:36:00.850Z,75.29
2019-01-10T11:37:00.827Z,75.40
2019-01-10T11:38:00.815Z,74.98
2019-01-10T11:39:00.838Z,75.40
2019-01-10T11:40:00.787Z,75.50
2019-01-10T11:41:00.790Z,74.98
2019-01-10T11:42:00.770Z,75.18
2019-01-10T11:43:00.755Z,76.75
2019-01-10T11:44:00.772Z,76.75
2019-01-10T11:45:00.738Z,76.02
2019-01-10T11:46:00.730Z,76.79
2019-01-10T11:47:00.715Z,76.96
2019-01-10T11:48:00.715Z,76.23
2019-01-10T11:49:00.702Z,76.23
2019-01-10T11:50:00.688Z,76.43
2019-01-10T11:51:00.685Z,76.96
2019-01-10T11:52:00.658Z,76.33
2019-01-10T11:53:00.654Z,77.13
2019-01-10T11:54:00.641Z,77.34
2019-01-10T11:55:00.630Z,76.51
2019-01-10T11:56:00.635Z,76.82
2019-01-10T11:57:00.592Z,76.30
2019-01-10T11:58:00.589Z,76.40
2019-01-10T11:59:00.619Z,77.23
2019-01-10T12:00:00.568Z,77.13
2019-01-10T12:01:00.583Z,76.09
2019-01-10T12:02:00.545Z,76.47
2019-01-10T12:03:00.536Z,76.89
2019-01-10T12:04:00.527Z,75.46
2019-01-10T12:05:00.523Z,75.88
2019-01-10T12:06:00.520Z,76.20
2019-01-10T12:07:00.517Z,75.46
2019-01-10T12:08:00.495Z,75.15
2019-01-10T12:09:00.469Z,75.26
2019-01-10T12:10:00.491Z,75.26
2019-01-10T12:11:00.457Z,75.26
2019-01-10T12:12:00.458Z,75.32
2019-01-10T12:13:00.425Z,74.63
2019-01-10T12:14:00.411Z,74.80
2019-01-10T12:15:00.405Z,75.05
2019-01-10T12:16:00.397Z,75.57
2019-01-10T12:17:00.407Z,75.64
2019-01-10T12:18:00.383Z,74.74
2019-01-10T12:19:00.369Z,74.11
2019-01-10T12:20:00.387Z,73.27
2019-01-10T12:21:00.336Z,74.29
2019-01-10T12:22:00.345Z,73.17
2019-01-10T12:23:00.317Z,73.49
2019-01-10T12:24:00.345Z,73.07
2019-01-10T12:25:00.293Z,72.96
2019-01-10T12:26:00.297Z,72.34
2019-01-10T12:27:00.311Z,72.34
2019-01-10T12:28:00.262Z,72.34
2019-01-10T12:29:00.254Z,72.27
2019-01-10T12:30:00.276Z,72.37
2019-01-10T12:31:00.240Z,72.65
2019-01-10T12:32:00.254Z,73.17
2019-01-10T12:33:00.202Z,73.07
2019-01-10T12:34:00.202Z,72.96
2019-01-10T12:35:00.276Z,73.17
2019-01-10T12:36:00.168Z,73.27
2019-01-10T12:37:00.766Z,73.07
2019-01-10T12:38:00.165Z,73.27
2019-01-10T12:39:00.145Z,74.11
2019-01-10T12:40:00.281Z,73.90
2019-01-10T12:41:00.126Z,74.01
2019-01-10T12:42:00.123Z,73.35
2019-01-10T12:43:00.108Z,72.75
2019-01-10T12:44:00.092Z,73.27
2019-01-10T12:45:00.095Z,73.27
2019-01-10T12:46:00.084Z,73.17
2019-01-10T12:47:00.063Z,72.75
2019-01-10T12:48:01.645Z,73.14
2019-01-10T12:49:00.030Z,72.72
2019-01-10T12:50:00.018Z,72.09
2019-01-10T12:51:00.025Z,72.72
2019-01-10T12:51:59.998Z,72.30